Time;durP1;ratioP1;P1;durP2;ratioP2;P2;SDS_P1;SDS_P2;PMS_P1;PMS_P2;Temp;Humidity;BMP_temperature;BMP_pressure;BME280_temperature;BME280_humidity;BME280_pressure;Samples;Min_cycle;Max_cycle;Signal;HPM_P1;HPM_P2
2023/04/04 00:01:25;;;;;;;12.70;5.70;;;;;;;-0.17;62.58;101119.89;131061;1254;105900;-72
2023/04/04 00:04:31;;;;;;;28.30;11.90;;;;;;;-0.17;62.72;101116.40;131144;1253;107518;-72
2023/04/04 00:07:36;;;;;;;7.80;3.80;;;;;;;-0.16;63.13;101114.60;131128;1251;107407;-73
2023/04/04 00:10:42;;;;;;;10.00;5.00;;;;;;;-0.12;62.68;101115.84;131006;1253;107531;-72
2023/04/04 00:13:48;;;;;;;13.10;8.00;;;;;;;-0.07;62.55;101116.69;131043;1251;107507;-72
2023/04/04 00:16:53;;;;;;;10.40;5.10;;;;;;;-0.02;62.60;101114.22;131056;1253;106740;-72
2023/04/04 00:19:59;;;;;;;10.60;5.20;;;;;;;-0.03;62.75;101109.52;130873;1251;108037;-72
2023/04/04 00:23:04;;;;;;;14.50;7.50;;;;;;;-0.04;62.42;101102.91;131175;1253;107488;-73
2023/04/04 00:26:10;;;;;;;7.70;4.30;;;;;;;-0.07;62.65;101094.85;131010;1265;107733;-72
2023/04/04 00:29:16;;;;;;;7.80;4.70;;;;;;;-0.12;62.68;101090.30;131009;1251;107412;-71
2023/04/04 00:32:22;;;;;;;10.10;5.00;;;;;;;-0.13;62.13;101083.20;131111;1251;183303;-72
2023/04/04 00:35:27;;;;;;;8.10;4.20;;;;;;;-0.16;62.35;101083.83;131100;1273;107524;-72
2023/04/04 00:38:33;;;;;;;8.00;3.90;;;;;;;-0.23;62.45;101082.72;131030;1251;108448;-72
2023/04/04 00:41:40;;;;;;;8.80;3.90;;;;;;;-0.27;62.27;101082.53;131073;1251;107387;-72
2023/04/04 00:44:46;;;;;;;6.30;3.40;;;;;;;-0.28;62.26;101077.51;131254;1254;107626;-72
2023/04/04 00:47:52;;;;;;;8.00;3.40;;;;;;;-0.34;62.71;101079.34;131123;1251;107556;-74
2023/04/04 00:50:57;;;;;;;6.90;3.70;;;;;;;-0.42;63.19;101073.17;131068;1273;107780;-71
2023/04/04 00:54:03;;;;;;;12.00;5.90;;;;;;;-0.50;63.66;101070.38;130928;1255;107336;-72
2023/04/04 00:57:10;;;;;;;6.60;3.80;;;;;;;-0.55;63.25;101068.85;131078;1251;107588;-71
2023/04/04 01:00:17;;;;;;;8.50;3.90;;;;;;;-0.62;63.29;101071.88;130985;1251;109098;-75
2023/04/04 01:03:23;;;;;;;8.30;3.70;;;;;;;-0.66;63.48;101069.61;130901;1253;107536;-70
2023/04/04 01:06:31;;;;;;;7.10;3.90;;;;;;;-0.74;63.99;101066.26;130878;1255;108275;-73
2023/04/04 01:09:37;;;;;;;8.10;4.20;;;;;;;-0.81;63.75;101057.82;130970;1253;107508;-69
2023/04/04 01:12:43;;;;;;;9.10;4.70;;;;;;;-0.90;64.03;101053.27;130999;1251;107361;-71
2023/04/04 01:15:50;;;;;;;8.20;4.70;;;;;;;-0.97;63.98;101047.63;130897;1255;108129;-71
2023/04/04 01:18:56;;;;;;;10.20;4.60;;;;;;;-1.07;64.42;101045.17;130900;1254;107523;-71
2023/04/04 01:22:02;;;;;;;9.60;4.60;;;;;;;-1.19;65.93;101043.37;130942;1254;107706;-70
2023/04/04 01:25:09;;;;;;;7.90;4.00;;;;;;;-1.28;65.82;101044.77;130868;1254;107357;-70
2023/04/04 01:28:17;;;;;;;7.30;3.90;;;;;;;-1.29;65.24;101046.54;130972;1254;108552;-73
2023/04/04 01:31:28;;;;;;;8.80;4.30;;;;;;;-1.26;64.68;101045.39;131200;1253;107415;-70
2023/04/04 01:34:42;;;;;;;9.60;4.50;;;;;;;-1.24;64.97;101041.13;131166;1251;107492;-72
2023/04/04 01:37:55;;;;;;;10.10;4.30;;;;;;;-1.25;64.53;101039.95;131113;1267;107723;-70
2023/04/04 01:41:04;;;;;;;9.80;4.30;;;;;;;-1.26;64.51;101043.10;131088;1251;107447;-70
2023/04/04 01:44:14;;;;;;;9.50;4.40;;;;;;;-1.27;64.68;101047.34;130983;1251;108285;-71
2023/04/04 01:47:22;;;;;;;8.70;4.70;;;;;;;-1.32;64.91;101044.56;131189;1253;107493;-76
2023/04/04 01:50:28;;;;;;;9.30;4.40;;;;;;;-1.37;64.57;101042.31;131129;1255;108330;-71
2023/04/04 01:53:33;;;;;;;9.30;4.20;;;;;;;-1.44;65.71;101041.52;130891;1250;107516;-73
2023/04/04 01:56:39;;;;;;;10.40;5.00;;;;;;;-1.51;64.84;101041.10;130876;1253;108372;-71
2023/04/04 01:59:44;;;;;;;10.40;5.40;;;;;;;-1.57;66.02;101042.20;131030;1251;107991;-70
2023/04/04 02:02:50;;;;;;;8.40;4.70;;;;;;;-1.64;65.47;101040.52;131044;1257;108378;-71
2023/04/04 02:05:56;;;;;;;11.10;5.30;;;;;;;-1.69;65.53;101040.87;131270;1251;109122;-72
2023/04/04 02:09:02;;;;;;;13.10;5.70;;;;;;;-1.75;65.86;101042.84;131057;1253;108056;-71
2023/04/04 02:12:09;;;;;;;12.20;6.20;;;;;;;-1.81;66.36;101042.86;130988;1251;107364;-71
2023/04/04 02:15:14;;;;;;;14.00;5.90;;;;;;;-1.88;67.35;101043.98;131064;1251;107232;-72
2023/04/04 02:18:21;;;;;;;11.20;5.50;;;;;;;-1.91;66.55;101037.15;131062;1253;107743;-71
2023/04/04 02:21:27;;;;;;;11.60;5.70;;;;;;;-1.93;67.74;101038.41;130879;1253;108012;-72
2023/04/04 02:24:33;;;;;;;10.70;5.00;;;;;;;-1.90;66.78;101036.56;131136;1272;108149;-71
2023/04/04 02:27:38;;;;;;;10.30;5.40;;;;;;;-1.86;66.62;101035.02;131031;1251;107522;-72
2023/04/04 02:30:44;;;;;;;11.70;6.20;;;;;;;-1.79;66.35;101034.44;131081;1253;108069;-71
2023/04/04 02:33:50;;;;;;;14.10;7.50;;;;;;;-1.74;66.43;101033.75;130894;1251;107987;-71
2023/04/04 02:36:57;;;;;;;12.40;6.40;;;;;;;-1.76;65.95;101032.23;130925;1253;107460;-72
2023/04/04 02:40:04;;;;;;;15.20;8.80;;;;;;;-1.80;66.44;101036.39;131101;1253;107984;-71
2023/04/04 02:43:12;;;;;;;14.40;9.00;;;;;;;-1.82;65.66;101038.20;130962;1253;108060;-71
2023/04/04 02:46:19;;;;;;;13.70;7.80;;;;;;;-1.82;65.67;101041.48;130873;1253;107506;-72
2023/04/04 02:49:25;;;;;;;14.40;7.30;;;;;;;-1.79;65.42;101040.88;131061;1251;108326;-72
2023/04/04 02:52:31;;;;;;;11.80;5.90;;;;;;;-1.79;65.48;101044.37;130968;1257;108094;-71
2023/04/04 02:55:41;;;;;;;8.40;4.60;;;;;;;-1.81;65.59;101045.84;130840;1251;107438;-72
2023/04/04 02:58:47;;;;;;;8.50;4.40;;;;;;;-1.85;65.62;101047.91;130928;1251;107507;-71
2023/04/04 03:01:52;;;;;;;9.10;4.80;;;;;;;-1.89;65.89;101048.40;130967;1257;109254;-72
2023/04/04 03:04:58;;;;;;;9.40;4.70;;;;;;;-1.96;66.18;101049.83;131388;1251;106520;-72
2023/04/04 03:08:04;;;;;;;8.60;4.70;;;;;;;-2.02;67.10;101052.84;131051;1252;107535;-73
2023/04/04 03:11:10;;;;;;;13.60;5.50;;;;;;;-2.10;66.80;101047.54;131075;1251;108373;-71
2023/04/04 03:14:15;;;;;;;10.70;5.20;;;;;;;-2.16;67.33;101047.21;130948;1255;108179;-74
2023/04/04 03:17:21;;;;;;;14.00;6.30;;;;;;;-2.22;67.74;101048.83;131018;1251;108266;-74
2023/04/04 03:20:27;;;;;;;17.30;7.10;;;;;;;-2.26;67.46;101049.13;131010;1253;108397;-70
2023/04/04 03:23:33;;;;;;;52.50;24.60;;;;;;;-2.25;67.51;101053.63;131064;1253;108912;-72
2023/04/04 03:26:38;;;;;;;14.80;7.20;;;;;;;-2.20;67.18;101048.40;131319;1253;108087;-72
2023/04/04 03:29:44;;;;;;;231.20;97.60;;;;;;;-2.15;67.40;101050.35;131194;1250;105805;-71
2023/04/04 03:32:52;;;;;;;27.70;12.60;;;;;;;-2.09;66.50;101047.70;131086;1253;110284;-71
2023/04/04 03:35:57;;;;;;;22.90;10.80;;;;;;;-2.04;66.50;101049.06;131149;1251;107016;-72
2023/04/04 03:39:03;;;;;;;13.40;7.10;;;;;;;-2.01;66.48;101049.67;131174;1254;108050;-71
2023/04/04 03:42:08;;;;;;;27.80;10.80;;;;;;;-2.01;66.45;101046.52;131308;1251;107503;-71
2023/04/04 03:45:14;;;;;;;56.40;18.80;;;;;;;-2.00;66.65;101039.88;131150;1253;108133;-72
2023/04/04 03:48:21;;;;;;;88.70;27.30;;;;;;;-2.02;67.57;101037.86;131208;1248;107814;-71
2023/04/04 03:51:27;;;;;;;47.70;17.00;;;;;;;-2.07;67.42;101034.70;131175;1254;107478;-71
2023/04/04 03:54:33;;;;;;;71.50;23.80;;;;;;;-2.06;68.23;101029.98;131049;1253;107537;-71
2023/04/04 03:57:39;;;;;;;23.40;10.80;;;;;;;-2.06;67.72;101031.72;131192;1254;108226;-73
2023/04/04 04:00:48;;;;;;;19.40;10.50;;;;;;;-2.05;68.09;101032.56;131237;1254;107632;-71
2023/04/04 04:03:53;;;;;;;17.60;9.40;;;;;;;-2.01;67.45;101030.67;131115;1256;107438;-72
2023/04/04 04:06:59;;;;;;;39.10;20.80;;;;;;;-1.98;67.15;101029.70;131182;1251;108000;-72
2023/04/04 04:10:06;;;;;;;14.60;7.70;;;;;;;-1.99;68.12;101030.41;131169;1253;108209;-71
2023/04/04 04:13:11;;;;;;;14.30;7.80;;;;;;;-2.01;67.12;101033.27;131080;1256;107495;-70
2023/04/04 04:16:17;;;;;;;15.30;7.40;;;;;;;-2.00;67.49;101037.60;131009;1257;108135;-72
2023/04/04 04:19:23;;;;;;;124.60;49.70;;;;;;;-1.95;67.17;101037.78;131026;1251;107417;-72
2023/04/04 04:22:29;;;;;;;21.50;10.10;;;;;;;-1.86;67.07;101041.66;130909;1257;107513;-71
2023/04/04 04:25:35;;;;;;;32.30;15.30;;;;;;;-1.76;66.70;101042.88;131088;1272;107103;-71
2023/04/04 04:28:50;;;;;;;38.90;16.10;;;;;;;-1.65;67.03;101042.83;131061;1253;107480;-70
2023/04/04 04:32:00;;;;;;;33.00;14.10;;;;;;;-1.58;66.72;101038.17;131042;1254;108109;-72
2023/04/04 04:35:09;;;;;;;10.60;6.60;;;;;;;-1.55;67.13;101037.05;131051;1251;107409;-71
2023/04/04 04:38:16;;;;;;;11.40;6.50;;;;;;;-1.57;67.13;101032.75;131203;1254;107495;-71
2023/04/04 04:41:21;;;;;;;18.00;9.00;;;;;;;-1.54;67.10;101030.74;131043;1251;107340;-72
2023/04/04 04:44:29;;;;;;;24.00;10.50;;;;;;;-1.50;66.94;101031.79;131036;1251;108342;-75
2023/04/04 04:47:36;;;;;;;14.90;7.80;;;;;;;-1.44;67.12;101030.72;131082;1251;108448;-72
2023/04/04 04:50:44;;;;;;;24.70;11.90;;;;;;;-1.35;66.85;101030.34;131357;1254;107786;-71
2023/04/04 04:53:51;;;;;;;46.50;22.30;;;;;;;-1.23;66.88;101029.37;131279;1251;108576;-72
2023/04/04 04:57:01;;;;;;;38.20;18.40;;;;;;;-1.11;66.90;101028.23;131079;1251;108328;-70
2023/04/04 05:00:34;;;;;;;18.00;9.70;;;;;;;-1.01;66.96;101029.79;131194;1261;107993;-71
2023/04/04 05:03:43;;;;;;;23.40;12.30;;;;;;;-0.95;66.92;101021.48;131349;1265;108038;-71
2023/04/04 05:06:51;;;;;;;14.50;7.80;;;;;;;-0.72;66.94;101028.80;131209;1251;107609;-73
2023/04/04 05:09:56;;;;;;;14.40;7.20;;;;;;;-0.65;67.29;101032.69;131261;1251;107112;-71
2023/04/04 05:13:02;;;;;;;14.90;6.30;;;;;;;-0.65;67.37;101029.02;131068;1254;107973;-71
2023/04/04 05:16:11;;;;;;;11.50;5.90;;;;;;;-0.69;67.53;101027.46;131122;1251;107419;-70
2023/04/04 05:19:17;;;;;;;10.60;5.20;;;;;;;-0.73;67.60;101024.98;130940;1254;108073;-71
2023/04/04 05:22:27;;;;;;;9.70;5.40;;;;;;;-0.66;67.43;101028.56;131317;1254;107460;-69
2023/04/04 05:25:33;;;;;;;10.20;5.30;;;;;;;-0.54;67.54;101028.78;131055;1253;107386;-72
2023/04/04 05:28:40;;;;;;;8.40;5.10;;;;;;;-0.35;67.22;101023.95;131866;1253;107458;-71
2023/04/04 05:31:46;;;;;;;10.20;6.10;;;;;;;-0.18;67.03;101022.88;131112;1253;107428;-71
2023/04/04 05:34:55;;;;;;;11.00;5.50;;;;;;;-0.06;67.20;101020.80;131203;1253;108044;-70
2023/04/04 05:38:01;;;;;;;15.40;7.60;;;;;;;0.11;66.92;101017.43;131184;1253;108021;-72
2023/04/04 05:41:08;;;;;;;17.30;9.50;;;;;;;0.23;66.57;101017.80;131099;1251;107328;-71
2023/04/04 05:44:14;;;;;;;26.70;12.80;;;;;;;0.22;66.61;101024.30;131233;1252;107454;-72
2023/04/04 05:47:21;;;;;;;24.90;12.90;;;;;;;0.21;66.78;101023.82;131401;1249;107497;-72
2023/04/04 05:50:27;;;;;;;27.40;15.80;;;;;;;0.16;66.75;101031.74;131286;1251;107483;-70
2023/04/04 05:53:37;;;;;;;15.40;8.20;;;;;;;0.08;66.70;101029.13;131082;1251;108331;-70
2023/04/04 05:56:44;;;;;;;18.20;9.50;;;;;;;0.07;66.89;101034.60;131137;1251;107431;-71
2023/04/04 05:59:54;;;;;;;23.50;14.20;;;;;;;0.03;66.74;101036.52;131190;1253;108109;-71
2023/04/04 06:03:00;;;;;;;11.30;5.60;;;;;;;0.02;66.62;101033.56;131133;1260;108015;-71
2023/04/04 06:06:09;;;;;;;17.60;9.80;;;;;;;0.06;66.52;101036.76;131261;1253;108001;-70
2023/04/04 06:09:14;;;;;;;13.90;8.60;;;;;;;0.03;66.93;101038.08;131247;1253;107528;-71
2023/04/04 06:12:20;;;;;;;13.20;7.30;;;;;;;0.01;66.77;101036.23;130973;1257;108072;-71
2023/04/04 06:15:25;;;;;;;11.20;7.10;;;;;;;0.17;66.89;101031.52;130983;1255;108002;-72
2023/04/04 06:18:31;;;;;;;9.40;5.90;;;;;;;0.33;66.49;101029.92;131149;1251;107950;-70
2023/04/04 06:21:37;;;;;;;14.40;8.80;;;;;;;0.42;66.22;101028.30;131032;1263;108155;-71
2023/04/04 06:24:44;;;;;;;9.80;6.20;;;;;;;0.58;66.50;101023.77;131099;1252;107988;-72
2023/04/04 06:27:50;;;;;;;22.40;12.40;;;;;;;0.76;66.22;101026.61;131137;1251;107431;-70
2023/04/04 06:30:56;;;;;;;22.00;11.40;;;;;;;0.84;65.83;101022.55;131315;1261;108071;-70
2023/04/04 06:34:08;;;;;;;23.00;11.80;;;;;;;0.89;65.62;101021.42;131342;1253;109090;-71
2023/04/04 06:37:22;;;;;;;32.10;18.00;;;;;;;0.97;65.83;101018.41;131153;1251;107483;-72
2023/04/04 06:40:35;;;;;;;26.20;13.10;;;;;;;0.98;65.50;101021.88;131113;1253;109146;-71
2023/04/04 06:43:41;;;;;;;25.10;12.90;;;;;;;0.92;65.36;101018.28;131176;1251;107517;-72
2023/04/04 06:46:47;;;;;;;16.70;10.20;;;;;;;0.96;65.55;101018.48;130999;1263;108129;-70
2023/04/04 06:49:52;;;;;;;16.30;7.70;;;;;;;0.99;65.28;101018.16;130895;1251;108120;-71
2023/04/04 06:52:58;;;;;;;12.40;6.80;;;;;;;0.97;65.31;101016.48;131260;1261;107513;-71
2023/04/04 06:56:04;;;;;;;47.20;26.70;;;;;;;1.00;65.42;101017.61;131115;1248;107347;-72
2023/04/04 06:59:11;;;;;;;25.40;13.70;;;;;;;1.01;65.44;101019.66;131243;1254;108058;-71
2023/04/04 07:02:16;;;;;;;18.50;10.70;;;;;;;0.98;65.03;101020.48;131145;1257;108324;-71
2023/04/04 07:05:22;;;;;;;17.90;10.30;;;;;;;1.01;65.22;101019.80;131796;1253;108174;-72
2023/04/04 07:08:29;;;;;;;25.90;15.90;;;;;;;1.14;65.26;101011.83;131243;1254;108040;-71
2023/04/04 07:11:35;;;;;;;8.90;5.00;;;;;;;1.28;65.23;101008.34;131425;1248;107777;-72
2023/04/04 07:14:40;;;;;;;38.60;19.50;;;;;;;1.29;64.51;101008.86;131458;1251;107499;-69
2023/04/04 07:17:46;;;;;;;13.50;7.70;;;;;;;1.23;64.83;101007.23;131191;1271;107630;-72
2023/04/04 07:20:52;;;;;;;18.60;9.90;;;;;;;1.20;64.65;101004.21;131209;1270;107232;-72
2023/04/04 07:23:58;;;;;;;11.90;5.10;;;;;;;1.10;64.74;101008.71;131170;1248;107900;-70
2023/04/04 07:27:04;;;;;;;8.40;4.50;;;;;;;0.99;65.09;101005.55;131168;1262;108163;-70
2023/04/04 07:30:11;;;;;;;10.30;5.50;;;;;;;1.00;65.11;101009.16;131355;1247;106285;-69
2023/04/04 07:33:17;;;;;;;6.70;4.10;;;;;;;0.99;64.99;101001.34;131130;1260;107509;-71
2023/04/04 07:36:22;;;;;;;8.20;4.30;;;;;;;1.08;65.41;101000.41;131043;1251;108077;-69
2023/04/04 07:39:28;;;;;;;10.70;5.20;;;;;;;1.21;64.92;100993.45;131146;1248;109458;-70
2023/04/04 07:42:33;;;;;;;9.70;4.50;;;;;;;1.61;65.38;100989.16;131362;1248;107931;-68
2023/04/04 07:45:39;;;;;;;7.20;3.60;;;;;;;2.07;64.42;100988.92;131285;1263;107772;-68
2023/04/04 07:48:44;;;;;;;10.50;5.30;;;;;;;2.26;63.63;100983.56;131448;1261;106649;-69
2023/04/04 07:51:50;;;;;;;6.50;3.60;;;;;;;2.18;62.63;100985.39;131314;1253;108070;-69
2023/04/04 07:54:55;;;;;;;7.70;3.70;;;;;;;2.12;62.45;100981.80;131295;1254;107406;-70
2023/04/04 07:58:01;;;;;;;5.80;3.10;;;;;;;2.01;61.03;100984.70;131318;1252;108050;-71
2023/04/04 08:01:06;;;;;;;9.80;4.20;;;;;;;1.97;62.71;100984.20;131326;1251;107819;-71
2023/04/04 08:04:12;;;;;;;7.00;2.70;;;;;;;2.13;62.99;100978.83;131259;1252;108705;-71
2023/04/04 08:07:17;;;;;;;7.10;3.70;;;;;;;2.20;61.89;100977.05;131065;1254;108061;-71
2023/04/04 08:10:23;;;;;;;5.10;3.30;;;;;;;2.16;62.08;100973.20;131241;1248;108403;-67
2023/04/04 08:13:28;;;;;;;4.90;3.00;;;;;;;2.19;61.86;100971.98;131274;1254;106680;-72
2023/04/04 08:16:34;;;;;;;5.30;3.00;;;;;;;2.08;60.87;100972.19;131150;1251;110278;-71
2023/04/04 08:19:40;;;;;;;7.40;2.90;;;;;;;1.95;61.77;100971.30;131079;1254;108081;-72
2023/04/04 08:22:45;;;;;;;5.70;2.80;;;;;;;1.86;61.94;100970.20;131359;1253;110220;-71
2023/04/04 08:25:51;;;;;;;7.70;3.70;;;;;;;1.90;62.58;100971.38;131186;1257;107950;-71
2023/04/04 08:28:56;;;;;;;9.10;3.60;;;;;;;2.07;62.64;100965.94;131313;1253;108104;-70
2023/04/04 08:32:01;;;;;;;6.20;3.20;;;;;;;2.23;62.40;100964.23;131113;1257;108323;-70
2023/04/04 08:35:08;;;;;;;7.20;3.50;;;;;;;2.37;61.95;100962.59;131148;1252;107917;-71
2023/04/04 08:38:14;;;;;;;5.40;2.80;;;;;;;2.54;61.12;100957.83;131221;1271;107201;-70
2023/04/04 08:41:20;;;;;;;8.30;4.10;;;;;;;2.50;59.97;100958.17;131375;1248;107896;-71
2023/04/04 08:44:28;;;;;;;6.70;3.10;;;;;;;2.49;60.74;100959.33;131290;1248;108074;-72
2023/04/04 08:47:35;;;;;;;5.50;3.00;;;;;;;2.42;60.26;100954.79;131169;1261;107491;-70
2023/04/04 08:50:42;;;;;;;13.40;7.60;;;;;;;2.39;60.58;100953.01;131199;1271;107519;-70
2023/04/04 08:53:48;;;;;;;5.90;3.30;;;;;;;2.40;59.46;100954.70;131132;1253;109024;-72
2023/04/04 08:56:54;;;;;;;6.20;3.50;;;;;;;2.41;60.25;100949.21;131335;1261;107506;-70
2023/04/04 09:00:01;;;;;;;8.00;3.20;;;;;;;2.50;61.01;100947.84;131225;1254;108299;-71
2023/04/04 09:03:14;;;;;;;5.10;2.60;;;;;;;2.62;60.26;100949.81;131152;1261;107241;-70
2023/04/04 09:06:20;;;;;;;4.60;2.20;;;;;;;2.61;59.01;100948.65;131140;1253;107414;-71
2023/04/04 09:09:27;;;;;;;4.20;2.60;;;;;;;2.65;59.54;100946.86;131132;1253;108033;-71
2023/04/04 09:12:36;;;;;;;5.20;2.80;;;;;;;2.75;59.41;100947.50;131196;1248;107348;-72
2023/04/04 09:15:43;;;;;;;4.80;2.50;;;;;;;2.79;58.33;100949.61;131235;1254;107232;-71
2023/04/04 09:18:48;;;;;;;6.20;3.00;;;;;;;2.72;57.86;100953.66;131127;1263;107508;-71
2023/04/04 09:21:54;;;;;;;5.20;2.60;;;;;;;2.59;56.78;100952.81;131299;1253;109925;-70
2023/04/04 09:25:02;;;;;;;5.20;2.40;;;;;;;2.54;57.26;100954.48;131185;1261;107947;-70
2023/04/04 09:28:07;;;;;;;5.70;2.90;;;;;;;2.56;56.47;100954.54;131121;1248;108103;-70
2023/04/04 09:31:13;;;;;;;8.00;3.00;;;;;;;2.60;58.03;100949.93;131272;1252;108085;-71
2023/04/04 09:34:20;;;;;;;63.40;39.70;;;;;;;2.68;58.80;100951.77;131141;1254;108061;-71
2023/04/04 09:37:26;;;;;;;8.00;3.80;;;;;;;2.80;58.20;100947.58;131221;1254;107504;-70
2023/04/04 09:40:31;;;;;;;6.10;3.30;;;;;;;2.85;57.70;100954.89;131305;1253;108266;-70
2023/04/04 09:43:39;;;;;;;6.20;3.20;;;;;;;2.71;58.06;100954.39;131292;1262;108103;-68
2023/04/04 09:46:45;;;;;;;7.50;3.90;;;;;;;2.61;57.84;100959.91;131189;1248;108041;-69
2023/04/04 09:49:51;;;;;;;4.90;3.20;;;;;;;2.41;57.18;100960.77;131341;1254;107992;-71
2023/04/04 09:52:59;;;;;;;11.70;4.90;;;;;;;2.32;57.97;100959.90;131243;1258;108278;-70
2023/04/04 09:56:05;;;;;;;13.50;8.10;;;;;;;2.25;57.39;100963.25;131618;1253;108146;-69
2023/04/04 09:59:12;;;;;;;12.10;6.50;;;;;;;2.27;56.88;100963.48;131044;1263;107485;-69
2023/04/04 10:02:17;;;;;;;7.50;4.30;;;;;;;2.32;56.80;100957.75;131406;1247;107927;-70
2023/04/04 10:05:26;;;;;;;8.10;5.30;;;;;;;2.45;56.58;100950.44;131324;1251;107917;-70
2023/04/04 10:08:33;;;;;;;12.70;7.50;;;;;;;2.55;56.36;100959.48;131419;1257;107555;-70
2023/04/04 10:11:39;;;;;;;10.20;4.60;;;;;;;2.64;56.04;100956.05;131171;1254;106393;-70
2023/04/04 10:14:47;;;;;;;6.90;3.90;;;;;;;2.68;55.02;100958.25;131127;1257;107997;-70
2023/04/04 10:17:55;;;;;;;12.20;5.40;;;;;;;2.76;54.19;100953.62;131194;1262;108068;-69
2023/04/04 10:21:02;;;;;;;20.10;8.20;;;;;;;2.82;54.34;100953.32;131334;1254;107492;-71
2023/04/04 10:24:09;;;;;;;6.00;3.20;;;;;;;2.75;52.41;100955.75;131390;1261;107252;-71
2023/04/04 10:27:15;;;;;;;5.60;2.90;;;;;;;2.72;53.65;100950.31;131241;1258;109693;-70
2023/04/04 10:30:20;;;;;;;6.20;3.20;;;;;;;2.81;54.14;100951.38;131131;1272;107229;-70
2023/04/04 10:33:32;;;;;;;5.40;3.20;;;;;;;2.94;54.01;100956.85;131053;1253;108162;-70
2023/04/04 10:36:44;;;;;;;6.70;3.30;;;;;;;3.02;52.34;100954.11;131188;1271;107814;-70
2023/04/04 10:39:55;;;;;;;5.70;3.00;;;;;;;3.13;53.41;100952.20;131142;1261;108142;-70
2023/04/04 10:43:04;;;;;;;5.90;3.20;;;;;;;3.35;53.57;100949.36;131152;1254;107495;-70
2023/04/04 10:46:15;;;;;;;7.30;4.20;;;;;;;3.52;52.22;100949.80;131249;1254;107272;-70
2023/04/04 10:49:21;;;;;;;5.30;3.30;;;;;;;3.69;51.22;100945.60;131005;1248;108036;-70
2023/04/04 10:52:31;;;;;;;6.50;3.70;;;;;;;3.78;50.50;100946.50;131224;1262;107490;-68
2023/04/04 10:55:39;;;;;;;6.10;3.20;;;;;;;3.68;48.73;100947.08;131143;1255;107776;-71
2023/04/04 10:58:45;;;;;;;7.20;4.00;;;;;;;3.64;50.43;100940.99;131140;1261;108114;-71
2023/04/04 11:01:57;;;;;;;5.30;2.90;;;;;;;3.62;49.39;100946.05;131120;1261;107848;-71
2023/04/04 11:05:15;;;;;;;5.70;3.30;;;;;;;3.51;49.45;100943.17;131114;1253;109654;-72
2023/04/04 11:08:23;;;;;;;5.70;2.90;;;;;;;3.42;50.72;100944.39;131219;1257;107362;-70
2023/04/04 11:11:29;;;;;;;9.20;5.60;;;;;;;3.49;50.80;100943.77;131150;1271;107316;-71
2023/04/04 11:14:37;;;;;;;6.70;4.30;;;;;;;3.47;49.98;100942.17;131120;1271;107899;-71
2023/04/04 11:18:07;;;;;;;6.40;3.70;;;;;;;3.35;50.05;100943.77;131264;1271;108073;-70
2023/04/04 11:21:17;;;;;;;7.40;4.50;;;;;;;3.22;50.96;100938.40;131406;1251;107482;-69
2023/04/04 11:24:23;;;;;;;7.90;4.70;;;;;;;3.18;50.64;100937.89;131317;1247;107495;-68
2023/04/04 11:27:30;;;;;;;6.90;3.50;;;;;;;3.11;50.02;100936.86;131330;1251;108285;-68
2023/04/04 11:30:43;;;;;;;8.50;4.70;;;;;;;3.11;50.53;100936.70;131186;1271;107310;-70
2023/04/04 11:33:58;;;;;;;7.40;3.90;;;;;;;3.19;51.01;100936.08;131317;1251;107313;-70
2023/04/04 11:37:18;;;;;;;9.80;5.70;;;;;;;3.24;50.54;100931.73;131348;1247;108126;-69
2023/04/04 11:40:35;;;;;;;24.40;15.20;;;;;;;3.36;50.22;100930.13;131935;1247;108728;-68
2023/04/04 11:43:50;;;;;;;7.00;4.20;;;;;;;3.52;50.12;100925.69;131304;1254;108943;-69
2023/04/04 11:47:01;;;;;;;5.30;3.20;;;;;;;3.60;48.89;100917.29;131190;1254;108447;-71
2023/04/04 11:50:14;;;;;;;5.60;3.10;;;;;;;3.63;49.44;100910.79;131054;1252;107460;-70
2023/04/04 11:53:21;;;;;;;6.70;3.50;;;;;;;3.67;47.94;100913.02;131265;1251;108045;-71
2023/04/04 11:56:26;;;;;;;5.90;2.90;;;;;;;3.66;47.50;100917.66;131423;1252;108762;-69
2023/04/04 11:59:32;;;;;;;10.40;4.90;;;;;;;3.49;47.25;100913.73;131295;1271;107504;-70
2023/04/04 12:02:38;;;;;;;6.90;4.00;;;;;;;3.39;48.84;100910.66;131197;1253;107834;-70
2023/04/04 12:05:46;;;;;;;11.90;6.90;;;;;;;3.35;48.75;100913.52;131072;1247;107815;-71
2023/04/04 12:08:52;;;;;;;7.60;4.70;;;;;;;3.40;49.89;100911.08;131200;1254;107458;-69
2023/04/04 12:11:58;;;;;;;8.00;4.50;;;;;;;3.46;48.38;100913.04;131231;1272;107220;-69
2023/04/04 12:15:04;;;;;;;8.50;5.00;;;;;;;3.44;48.02;100914.90;131272;1253;107987;-71
2023/04/04 12:18:10;;;;;;;7.50;4.10;;;;;;;3.44;48.28;100913.86;131276;1251;106487;-70
2023/04/04 12:21:16;;;;;;;5.80;3.20;;;;;;;3.45;48.82;100909.73;131000;1254;107741;-71
2023/04/04 12:24:22;;;;;;;10.50;5.50;;;;;;;3.51;48.91;100912.89;131142;1271;107799;-70
2023/04/04 12:27:28;;;;;;;9.60;4.70;;;;;;;3.57;49.12;100906.23;131237;1251;107401;-70
2023/04/04 12:30:34;;;;;;;11.10;5.00;;;;;;;3.57;47.74;100906.58;131292;1257;107455;-72
2023/04/04 12:33:41;;;;;;;5.20;3.50;;;;;;;3.57;48.83;100905.33;131117;1247;133081;-71
2023/04/04 12:36:51;;;;;;;5.30;3.10;;;;;;;3.56;47.35;100902.23;131213;1261;107393;-70
2023/04/04 12:39:57;;;;;;;5.00;3.30;;;;;;;3.44;48.31;100900.45;131183;1247;108002;-71
2023/04/04 12:43:03;;;;;;;6.60;3.30;;;;;;;3.31;48.38;100900.34;130949;1247;107975;-68
2023/04/04 12:46:09;;;;;;;4.90;3.10;;;;;;;3.20;49.41;100901.54;131128;1251;109045;-71
2023/04/04 12:49:15;;;;;;;7.60;3.30;;;;;;;3.12;49.22;100899.69;131106;1270;107259;-68
2023/04/04 12:52:22;;;;;;;4.90;3.30;;;;;;;2.98;48.79;100904.21;131153;1251;108124;-68
2023/04/04 12:55:32;;;;;;;6.00;3.60;;;;;;;2.86;48.84;100900.89;131133;1247;107346;-68
2023/04/04 12:58:38;;;;;;;7.80;4.40;;;;;;;2.82;49.17;100901.10;131195;1263;109240;-69
2023/04/04 13:01:44;;;;;;;10.30;5.50;;;;;;;2.73;48.41;100902.80;131080;1247;107948;-70
2023/04/04 13:04:55;;;;;;;7.20;4.30;;;;;;;2.76;49.17;100899.33;131319;1254;107395;-65
2023/04/04 13:08:10;;;;;;;7.20;4.20;;;;;;;2.84;49.66;100898.17;131131;1264;108389;-68
2023/04/04 13:11:16;;;;;;;4.10;2.90;;;;;;;2.94;48.73;100894.25;131341;1261;107593;-68
2023/04/04 13:14:21;;;;;;;4.20;3.10;;;;;;;2.94;48.09;100892.48;131100;1253;107360;-68
2023/04/04 13:17:38;;;;;;;5.30;3.50;;;;;;;3.02;48.67;100886.59;131023;1253;109398;-67
2023/04/04 13:20:44;;;;;;;10.10;3.80;;;;;;;3.19;48.62;100889.16;131178;1253;107979;-66
2023/04/04 13:23:49;;;;;;;87.10;48.90;;;;;;;3.28;48.78;100885.94;131318;1254;110404;-65
2023/04/04 13:26:55;;;;;;;47.90;29.10;;;;;;;3.38;49.12;100886.45;131318;1262;110305;-66
2023/04/04 13:30:01;;;;;;;34.30;21.50;;;;;;;3.42;48.77;100885.64;131215;1248;108212;-70
2023/04/04 13:33:08;;;;;;;13.40;7.50;;;;;;;3.39;48.76;100882.83;131439;1248;107941;-70
2023/04/04 13:36:14;;;;;;;6.30;4.40;;;;;;;3.40;48.88;100883.47;131295;1247;107893;-70
2023/04/04 13:39:19;;;;;;;7.50;4.20;;;;;;;3.43;49.32;100873.10;131215;1262;107293;-68
2023/04/04 13:42:29;;;;;;;8.20;4.50;;;;;;;3.37;48.70;100877.48;131235;1251;107916;-68
2023/04/04 13:45:35;;;;;;;7.30;3.70;;;;;;;3.33;49.57;100883.36;131265;1271;108261;-70
2023/04/04 13:48:41;;;;;;;6.80;4.00;;;;;;;3.31;49.67;100880.88;131338;1251;108306;-71
2023/04/04 13:51:48;;;;;;;4.30;3.20;;;;;;;3.32;49.18;100882.38;131317;1254;107987;-66
2023/04/04 13:54:53;;;;;;;4.70;3.30;;;;;;;3.25;48.82;100885.61;131299;1264;109028;-68
2023/04/04 13:57:59;;;;;;;12.30;5.40;;;;;;;3.16;49.39;100884.52;131327;1248;107125;-70
2023/04/04 14:01:05;;;;;;;6.80;4.00;;;;;;;3.14;49.18;100888.36;131198;1248;106783;-69
2023/04/04 14:04:11;;;;;;;10.50;4.80;;;;;;;3.08;49.13;100887.13;131149;1251;107511;-69
2023/04/04 14:07:16;;;;;;;6.60;3.90;;;;;;;3.04;49.25;100885.58;131179;1251;106605;-70
2023/04/04 14:10:22;;;;;;;7.70;4.40;;;;;;;2.94;49.76;100882.48;131208;1251;108109;-69